Time;durP1;ratioP1;P1;durP2;ratioP2;P2;SDS_P1;SDS_P2;PMS_P1;PMS_P2;Temp;Humidity;BMP_temperature;BMP_pressure;BME280_temperature;BME280_humidity;BME280_pressure;Samples;Min_cycle;Max_cycle;Signal;HPM_P1;HPM_P2
2021/01/23 00:00:41;;;;;;;103.93;9.35;;;2.80;99.90;;;;;;4974768;28;20102;-78
2021/01/23 00:03:07;;;;;;;66.35;8.05;;;2.70;99.90;;;;;;4973111;28;20054;-78
2021/01/23 00:05:32;;;;;;;89.32;9.10;;;2.70;99.90;;;;;;4973850;28;20048;-78
2021/01/23 00:08:01;;;;;;;86.82;9.00;;;2.70;99.90;;;;;;4974653;28;20027;-78
2021/01/23 00:10:30;;;;;;;79.55;9.85;;;2.80;99.90;;;;;;4974615;28;20031;-78
2021/01/23 00:12:56;;;;;;;78.15;9.10;;;2.90;99.90;;;;;;4974378;28;20510;-78
2021/01/23 00:15:23;;;;;;;82.95;10.45;;;3.00;99.90;;;;;;4973092;28;20030;-78
2021/01/23 00:17:48;;;;;;;79.53;10.27;;;3.10;99.90;;;;;;4973034;28;20034;-78
2021/01/23 00:20:14;;;;;;;93.40;9.10;;;3.10;99.90;;;;;;4974345;28;20019;-78
2021/01/23 00:22:40;;;;;;;84.00;8.95;;;3.10;99.90;;;;;;4974268;28;20094;-78
2021/01/23 00:25:08;;;;;;;71.70;8.50;;;3.10;99.90;;;;;;4974127;28;20035;-78
2021/01/23 00:27:33;;;;;;;94.43;9.63;;;3.10;99.90;;;;;;4974158;28;20026;-78
2021/01/23 00:29:59;;;;;;;69.00;8.82;;;3.10;99.90;;;;;;4973007;28;20127;-78
2021/01/23 00:32:25;;;;;;;82.28;9.25;;;3.20;99.90;;;;;;4974049;28;20399;-78
2021/01/23 00:34:51;;;;;;;74.50;10.05;;;3.20;99.90;;;;;;4972650;28;20035;-78
2021/01/23 00:37:17;;;;;;;54.03;7.75;;;3.20;99.90;;;;;;4974052;28;20037;-78
2021/01/23 00:39:42;;;;;;;65.45;9.15;;;3.30;99.90;;;;;;4974072;28;20503;-78
2021/01/23 00:42:08;;;;;;;86.68;8.65;;;3.20;99.90;;;;;;4972615;28;20023;-78
2021/01/23 00:44:34;;;;;;;95.30;9.02;;;3.20;99.90;;;;;;4972593;28;20109;-78
2021/01/23 00:46:59;;;;;;;74.45;8.68;;;3.30;99.90;;;;;;4973813;28;20189;-78
2021/01/23 00:49:25;;;;;;;54.70;8.05;;;3.30;99.90;;;;;;4973921;28;20061;-78
2021/01/23 00:51:51;;;;;;;83.00;10.18;;;3.30;99.90;;;;;;4972546;28;20033;-78
2021/01/23 00:54:16;;;;;;;63.33;8.13;;;3.30;99.90;;;;;;4972122;28;20030;-78
2021/01/23 00:56:42;;;;;;;98.88;9.48;;;3.40;99.90;;;;;;4973569;28;20114;-78
2021/01/23 00:59:08;;;;;;;57.38;7.65;;;3.40;99.90;;;;;;4973795;28;20034;-78
2021/01/23 01:01:33;;;;;;;68.20;9.00;;;3.40;99.90;;;;;;4973621;28;20395;-78
2021/01/23 01:03:59;;;;;;;51.10;7.07;;;3.40;99.90;;;;;;4972100;28;20026;-78
2021/01/23 01:06:25;;;;;;;73.13;8.25;;;3.50;99.90;;;;;;4973706;28;20102;-78
2021/01/23 01:08:50;;;;;;;52.80;7.65;;;3.50;99.90;;;;;;4973568;28;20031;-78
2021/01/23 01:11:16;;;;;;;77.32;8.02;;;3.50;99.90;;;;;;4973379;28;20570;-78
2021/01/23 01:13:41;;;;;;;71.45;7.93;;;3.50;99.90;;;;;;4973543;28;20031;-78
2021/01/23 01:16:07;;;;;;;51.55;9.00;;;3.50;99.90;;;;;;4973443;28;20038;-78
2021/01/23 01:18:33;;;;;;;64.13;8.40;;;3.50;99.90;;;;;;4973419;28;20031;-78
2021/01/23 01:20:58;;;;;;;48.33;6.97;;;3.40;99.90;;;;;;4972193;28;20540;-78
2021/01/23 01:23:24;;;;;;;55.65;8.52;;;3.40;99.90;;;;;;4970990;28;20030;-78
2021/01/23 01:25:49;;;;;;;56.33;6.78;;;3.40;99.90;;;;;;4953868;28;20027;-78
2021/01/23 01:28:15;;;;;;;92.07;9.68;;;3.40;99.90;;;;;;4954145;28;20027;-78
2021/01/23 01:30:40;;;;;;;56.05;7.22;;;3.30;99.90;;;;;;4952759;29;20110;-78
2021/01/23 01:33:06;;;;;;;65.50;8.02;;;3.30;99.90;;;;;;4953945;28;20034;-78
2021/01/23 01:35:32;;;;;;;68.25;7.40;;;3.20;99.90;;;;;;4953833;28;20031;-78
2021/01/23 01:37:57;;;;;;;70.40;9.25;;;3.10;99.90;;;;;;4954034;28;20503;-78
2021/01/23 01:40:23;;;;;;;58.22;7.75;;;3.00;99.90;;;;;;4953983;28;20050;-78
2021/01/23 01:42:48;;;;;;;55.40;8.05;;;2.90;99.90;;;;;;4953912;28;20042;-77
2021/01/23 01:45:15;;;;;;;46.88;7.25;;;2.80;99.90;;;;;;4954055;28;20179;-77
2021/01/23 01:47:41;;;;;;;63.30;7.53;;;2.70;99.90;;;;;;4953719;28;20376;-77
2021/01/23 01:50:08;;;;;;;69.43;7.95;;;2.70;99.90;;;;;;4953900;28;20047;-78
2021/01/23 01:52:34;;;;;;;66.15;8.57;;;2.70;99.90;;;;;;4953737;28;20500;-78
2021/01/23 01:55:00;;;;;;;74.45;8.00;;;2.60;99.90;;;;;;4953675;28;20119;-78
2021/01/23 01:57:25;;;;;;;56.17;6.63;;;2.50;99.90;;;;;;4953469;28;20032;-78
2021/01/23 01:59:51;;;;;;;62.70;6.40;;;2.40;99.90;;;;;;4953608;28;20034;-78
2021/01/23 02:02:41;;;;;;;65.95;8.30;;;2.40;99.90;;;;;;4953558;28;20027;-78
2021/01/23 02:05:23;;;;;;;55.65;8.32;;;2.40;99.90;;;;;;4953580;28;20027;-78
2021/01/23 02:08:18;;;;;;;62.42;7.72;;;2.40;99.90;;;;;;4953729;28;20028;-78
2021/01/23 02:11:09;;;;;;;60.47;7.88;;;2.30;99.90;;;;;;4952347;29;20074;-78
2021/01/23 02:13:44;;;;;;;70.15;7.63;;;2.20;99.90;;;;;;4953530;28;20122;-78
2021/01/23 02:16:15;;;;;;;58.53;8.02;;;2.10;99.90;;;;;;4953528;28;20074;-78
2021/01/23 02:18:59;;;;;;;71.75;8.60;;;2.10;99.90;;;;;;4952141;29;20491;-78
2021/01/23 02:21:55;;;;;;;60.33;7.55;;;2.10;99.90;;;;;;4953542;28;20032;-78
2021/01/23 02:24:25;;;;;;;51.88;7.47;;;2.10;99.90;;;;;;4963047;28;20031;-78
2021/01/23 02:27:14;;;;;;;73.65;8.80;;;2.00;99.90;;;;;;4973257;28;20034;-78
2021/01/23 02:30:04;;;;;;;67.03;8.18;;;2.00;99.90;;;;;;4976489;28;20054;-78
2021/01/23 02:32:32;;;;;;;60.80;9.23;;;1.90;99.90;;;;;;4974969;28;20488;-78
2021/01/23 02:34:59;;;;;;;73.95;9.63;;;1.90;99.90;;;;;;4976141;28;20030;-78
2021/01/23 02:37:27;;;;;;;55.53;8.63;;;1.80;99.90;;;;;;4974967;28;20411;-78
2021/01/23 02:39:54;;;;;;;74.18;8.68;;;1.80;99.90;;;;;;4976252;28;20045;-78
2021/01/23 02:42:20;;;;;;;48.10;9.38;;;1.90;99.90;;;;;;4976153;28;20098;-78
2021/01/23 02:44:45;;;;;;;47.85;8.43;;;1.80;99.90;;;;;;4975957;28;20655;-78
2021/01/23 02:47:11;;;;;;;57.20;8.07;;;1.80;99.90;;;;;;4976147;28;20027;-78
2021/01/23 02:49:37;;;;;;;65.72;9.05;;;1.80;99.90;;;;;;4974819;28;20062;-77
2021/01/23 02:52:26;;;;;;;60.03;8.82;;;1.80;99.90;;;;;;4975919;28;20502;-78
2021/01/23 02:55:14;;;;;;;66.97;10.55;;;1.80;99.90;;;;;;4974610;28;20459;-78
2021/01/23 02:57:42;;;;;;;49.97;9.40;;;1.80;99.90;;;;;;4975890;28;20498;-78
2021/01/23 03:00:10;;;;;;;57.92;8.98;;;1.70;99.90;;;;;;4974600;28;20035;-78
2021/01/23 03:02:49;;;;;;;53.47;10.90;;;1.60;99.90;;;;;;4973720;28;20030;-78
2021/01/23 03:05:16;;;;;;;91.63;13.88;;;1.60;99.90;;;;;;4974635;28;20015;-78
2021/01/23 03:07:42;;;;;;;77.53;10.68;;;1.60;99.90;;;;;;4975826;28;20026;-78
2021/01/23 03:10:09;;;;;;;58.65;10.15;;;1.60;99.90;;;;;;4974472;28;20033;-78
2021/01/23 03:12:34;;;;;;;66.15;12.52;;;1.60;99.90;;;;;;4975493;28;20035;-78
2021/01/23 03:15:00;;;;;;;75.25;10.18;;;1.50;99.90;;;;;;4975324;28;20074;-78
2021/01/23 03:17:26;;;;;;;60.88;12.70;;;1.50;99.90;;;;;;4990501;28;20122;-78
2021/01/23 03:19:52;;;;;;;57.85;11.23;;;1.50;99.90;;;;;;4975579;28;20034;-78
2021/01/23 03:22:18;;;;;;;62.53;11.35;;;1.50;99.90;;;;;;4990364;28;20531;-78
2021/01/23 03:24:44;;;;;;;63.67;11.68;;;1.50;99.90;;;;;;4975248;28;20034;-78
2021/01/23 03:27:09;;;;;;;57.22;12.82;;;1.50;99.90;;;;;;4975439;28;20027;-78
2021/01/23 03:29:35;;;;;;;65.63;12.82;;;1.40;99.90;;;;;;4974057;28;20030;-78
2021/01/23 03:32:01;;;;;;;77.38;13.45;;;1.40;99.90;;;;;;4975335;28;20480;-78
2021/01/23 03:34:26;;;;;;;65.07;14.35;;;1.30;99.90;;;;;;4975044;28;20034;-78
2021/01/23 03:36:52;;;;;;;74.05;15.15;;;1.30;99.90;;;;;;4975135;28;20033;-78
2021/01/23 03:39:17;;;;;;;67.97;16.35;;;1.20;99.90;;;;;;4974216;28;20030;-78
2021/01/23 03:41:43;;;;;;;90.25;17.75;;;1.20;99.90;;;;;;4975125;28;20023;-78
2021/01/23 03:44:08;;;;;;;67.97;18.08;;;1.10;99.90;;;;;;4974774;28;20027;-78
2021/01/23 03:46:34;;;;;;;74.78;20.77;;;1.10;99.90;;;;;;4973837;28;20037;-78
2021/01/23 03:49:00;;;;;;;96.35;22.15;;;1.10;99.90;;;;;;4975145;28;20550;-78
2021/01/23 03:51:25;;;;;;;95.10;22.38;;;1.10;99.90;;;;;;4975273;28;20085;-78
2021/01/23 03:53:51;;;;;;;82.15;22.00;;;1.10;99.90;;;;;;4974858;28;20058;-78
2021/01/23 03:56:16;;;;;;;101.68;27.52;;;1.10;99.90;;;;;;4973754;28;20399;-78
2021/01/23 03:58:42;;;;;;;120.82;27.60;;;1.20;99.90;;;;;;4974642;28;20090;-78
2021/01/23 04:01:08;;;;;;;107.22;29.73;;;1.20;99.90;;;;;;4973596;28;20097;-78
2021/01/23 04:03:33;;;;;;;105.18;29.77;;;1.20;99.90;;;;;;4974936;28;20030;-78
2021/01/23 04:05:59;;;;;;;125.88;32.92;;;1.20;99.90;;;;;;4974773;28;20026;-78
2021/01/23 04:08:24;;;;;;;124.13;33.55;;;1.20;99.90;;;;;;4973821;28;20121;-78
2021/01/23 04:10:50;;;;;;;140.38;32.15;;;1.20;99.90;;;;;;4974655;28;20034;-78
2021/01/23 04:13:15;;;;;;;130.85;36.55;;;1.20;99.90;;;;;;4973576;28;20502;-78
2021/01/23 04:15:41;;;;;;;142.30;38.38;;;1.30;99.90;;;;;;4975036;28;20030;-78
2021/01/23 04:18:07;;;;;;;132.55;38.90;;;1.40;99.90;;;;;;4974986;28;20429;-77
2021/01/23 04:20:33;;;;;;;166.23;41.45;;;1.50;99.90;;;;;;4973527;28;20034;-77
2021/01/23 04:22:59;;;;;;;168.43;44.72;;;1.50;99.90;;;;;;4974503;28;20038;-78
2021/01/23 04:25:25;;;;;;;192.07;42.53;;;1.60;99.90;;;;;;4954423;28;20034;-77
2021/01/23 04:27:50;;;;;;;166.27;41.33;;;1.70;99.90;;;;;;4955042;28;20404;-77
2021/01/23 04:30:16;;;;;;;160.25;42.25;;;1.80;99.90;;;;;;4955192;28;20094;-78
2021/01/23 04:32:42;;;;;;;139.57;43.15;;;1.80;99.90;;;;;;4954905;28;20024;-78
2021/01/23 04:35:09;;;;;;;160.00;43.22;;;1.70;99.90;;;;;;4954657;28;20031;-78
2021/01/23 04:37:39;;;;;;;152.70;45.75;;;1.70;99.90;;;;;;4954727;28;20035;-78
2021/01/23 04:40:07;;;;;;;149.35;44.83;;;1.70;99.90;;;;;;4954881;28;20471;-77
2021/01/23 04:42:33;;;;;;;122.78;40.50;;;1.70;99.90;;;;;;4954480;28;20512;-78
2021/01/23 04:44:59;;;;;;;141.23;41.15;;;1.60;99.90;;;;;;4953267;28;20037;-77
2021/01/23 04:47:25;;;;;;;135.90;43.80;;;1.60;99.90;;;;;;4954584;28;20062;-78
2021/01/23 04:49:51;;;;;;;156.57;47.50;;;1.60;99.90;;;;;;4954387;28;20071;-78
2021/01/23 04:52:17;;;;;;;128.48;41.92;;;1.50;99.90;;;;;;4954519;28;20031;-77
2021/01/23 04:54:43;;;;;;;133.50;42.92;;;1.50;99.90;;;;;;4954373;28;20492;-77
2021/01/23 04:57:09;;;;;;;128.00;41.65;;;1.50;99.90;;;;;;4954250;28;20480;-77
2021/01/23 04:59:35;;;;;;;154.85;45.40;;;1.40;99.90;;;;;;4953195;28;20035;-78
2021/01/23 05:02:21;;;;;;;138.48;44.88;;;1.40;99.90;;;;;;4954022;28;20470;-78
2021/01/23 05:04:48;;;;;;;163.10;45.38;;;1.50;99.90;;;;;;4954211;28;20030;-78
2021/01/23 05:07:37;;;;;;;153.85;44.78;;;1.50;99.90;;;;;;4954350;28;20059;-78
2021/01/23 05:10:16;;;;;;;142.77;46.80;;;1.40;99.90;;;;;;4954325;28;20110;-78
2021/01/23 05:12:48;;;;;;;152.65;48.00;;;1.40;99.90;;;;;;4952783;29;20094;-78
2021/01/23 05:15:20;;;;;;;154.00;48.17;;;1.40;99.90;;;;;;4952832;28;20480;-78
2021/01/23 05:17:53;;;;;;;149.85;46.05;;;1.40;99.90;;;;;;4954081;28;20027;-78
2021/01/23 05:20:32;;;;;;;125.47;46.33;;;1.30;99.90;;;;;;4954136;28;20042;-78
2021/01/23 05:23:02;;;;;;;137.93;45.00;;;1.30;99.90;;;;;;4954040;28;20093;-78
2021/01/23 05:25:30;;;;;;;156.35;46.63;;;1.20;99.90;;;;;;4972809;28;20055;-78
2021/01/23 05:27:56;;;;;;;121.80;46.40;;;1.20;99.90;;;;;;4973357;28;20030;-78
2021/01/23 05:30:23;;;;;;;142.73;47.25;;;1.20;99.90;;;;;;4973243;28;20065;-78
2021/01/23 05:33:09;;;;;;;145.27;48.03;;;1.30;99.90;;;;;;4973200;28;20027;-78
2021/01/23 05:35:36;;;;;;;166.52;50.05;;;1.20;99.90;;;;;;4971727;28;20033;-78
2021/01/23 05:38:25;;;;;;;143.43;48.38;;;1.20;99.90;;;;;;4973163;28;20053;-78
2021/01/23 05:41:09;;;;;;;155.02;49.08;;;1.20;99.90;;;;;;4973134;28;20077;-78
2021/01/23 05:43:45;;;;;;;141.63;47.65;;;1.20;99.90;;;;;;4971878;28;20027;-78
2021/01/23 05:46:18;;;;;;;135.60;46.03;;;1.20;99.90;;;;;;4973236;28;20015;-78
2021/01/23 05:48:50;;;;;;;151.23;47.75;;;1.10;99.90;;;;;;4971884;28;20051;-77
2021/01/23 05:51:16;;;;;;;152.63;47.70;;;1.10;99.90;;;;;;4971788;28;20031;-78
2021/01/23 05:53:43;;;;;;;146.05;45.20;;;1.00;99.90;;;;;;4972827;28;20034;-78
2021/01/23 05:56:09;;;;;;;147.45;45.58;;;0.90;99.90;;;;;;4971761;28;20121;-78
2021/01/23 05:58:39;;;;;;;126.43;48.35;;;0.90;99.90;;;;;;4971682;28;20027;-78
2021/01/23 06:01:10;;;;;;;130.02;45.38;;;0.90;99.90;;;;;;4973044;28;20023;-78
2021/01/23 06:03:46;;;;;;;123.22;43.70;;;0.90;99.90;;;;;;4976192;28;20097;-78
2021/01/23 06:06:12;;;;;;;142.82;48.05;;;0.90;99.90;;;;;;4975834;28;20460;-78
2021/01/23 06:08:41;;;;;;;125.88;44.90;;;0.80;99.90;;;;;;4976880;28;20051;-78
2021/01/23 06:11:19;;;;;;;157.27;48.53;;;0.90;99.90;;;;;;4976766;28;20030;-78
2021/01/23 06:13:48;;;;;;;121.00;47.20;;;0.80;99.90;;;;;;4976427;28;20026;-77
2021/01/23 06:16:32;;;;;;;147.52;47.22;;;0.80;99.90;;;;;;4975532;28;20033;-78
2021/01/23 06:18:58;;;;;;;;;;;0.80;99.90;;;;;;4977201;28;20121;-78
2021/01/23 06:21:53;;;;;;;133.50;48.03;;;0.80;99.90;;;;;;4976767;28;19906;-78
2021/01/23 06:24:44;;;;;;;130.38;46.90;;;0.70;99.90;;;;;;4963677;28;20062;-78
2021/01/23 06:27:10;;;;;;;124.97;46.25;;;0.60;99.90;;;;;;4976527;28;20023;-78
2021/01/23 06:29:40;;;;;;;143.95;49.20;;;0.60;99.90;;;;;;4976628;28;20030;-77
2021/01/23 06:32:12;;;;;;;135.50;50.88;;;0.60;99.90;;;;;;4975238;28;20026;-78
2021/01/23 06:34:52;;;;;;;143.25;50.67;;;0.60;99.90;;;;;;4976305;28;20031;-78
2021/01/23 06:37:25;;;;;;;123.43;46.65;;;0.60;99.90;;;;;;4975487;28;20027;-78
2021/01/23 06:40:15;;;;;;;171.35;50.22;;;0.70;99.90;;;;;;4975096;28;20023;-77
2021/01/23 06:42:51;;;;;;;142.52;49.10;;;0.60;99.90;;;;;;4976326;28;20102;-78
2021/01/23 06:45:32;;;;;;;150.75;51.47;;;0.60;99.90;;;;;;4976192;28;20038;-77
2021/01/23 06:47:58;;;;;;;164.38;50.50;;;0.70;99.90;;;;;;4976333;28;20037;-78
2021/01/23 06:50:43;;;;;;;157.77;54.17;;;0.70;99.90;;;;;;4975410;28;20133;-76
2021/01/23 06:53:22;;;;;;;160.13;50.85;;;0.60;99.90;;;;;;4976255;28;20031;-77
2021/01/23 06:55:48;;;;;;;123.70;45.40;;;0.60;99.90;;;;;;4974605;28;20082;-77
2021/01/23 06:58:28;;;;;;;152.50;49.75;;;0.50;99.90;;;;;;4974721;28;20038;-78
2021/01/23 07:00:55;;;;;;;135.85;46.65;;;0.50;99.90;;;;;;4976059;28;20101;-77
2021/01/23 07:03:21;;;;;;;128.45;46.53;;;0.50;99.90;;;;;;4975423;28;20049;-78
2021/01/23 07:05:52;;;;;;;126.78;47.60;;;0.50;99.90;;;;;;4975397;28;20031;-78
2021/01/23 07:08:22;;;;;;;160.43;49.13;;;0.50;99.90;;;;;;4975830;28;20026;-78
2021/01/23 07:11:17;;;;;;;146.57;48.45;;;0.40;99.90;;;;;;4975744;28;20487;-77
2021/01/23 07:14:02;;;;;;;149.63;47.50;;;0.50;99.90;;;;;;4974150;28;20403;-77
2021/01/23 07:16:29;;;;;;;140.45;48.05;;;0.60;99.90;;;;;;4975568;28;20490;-77
2021/01/23 07:19:00;;;;;;;178.57;53.50;;;0.50;99.90;;;;;;4974354;28;20117;-78
2021/01/23 07:21:26;;;;;;;141.27;49.53;;;0.50;99.90;;;;;;4974415;28;20026;-78
2021/01/23 07:23:53;;;;;;;148.68;50.42;;;0.60;99.90;;;;;;4969032;28;20507;-77
2021/01/23 07:26:20;;;;;;;157.57;50.38;;;0.60;99.90;;;;;;4954872;28;20031;-79
2021/01/23 07:28:53;;;;;;;172.38;53.30;;;0.60;99.90;;;;;;4956206;28;20055;-80
2021/01/23 07:31:26;;;;;;;158.98;51.53;;;0.60;99.90;;;;;;4954956;29;20050;-77
2021/01/23 07:33:53;;;;;;;154.48;50.58;;;0.60;99.90;;;;;;4955888;28;20074;-79
2021/01/23 07:36:30;;;;;;;153.55;49.67;;;0.70;99.90;;;;;;4954736;28;20063;-80
2021/01/23 07:38:56;;;;;;;141.50;51.92;;;0.60;99.90;;;;;;4954635;29;20063;-79
2021/01/23 07:41:22;;;;;;;138.30;47.50;;;0.60;99.90;;;;;;4956042;28;20078;-79
2021/01/23 07:43:48;;;;;;;135.90;48.33;;;0.60;99.90;;;;;;4955688;28;20098;-79
2021/01/23 07:46:15;;;;;;;141.40;50.17;;;0.60;99.90;;;;;;4954558;29;20472;-79
2021/01/23 07:48:42;;;;;;;145.52;47.10;;;0.50;99.90;;;;;;4954549;28;20031;-79
2021/01/23 07:51:07;;;;;;;168.15;52.13;;;0.50;99.90;;;;;;4955761;28;20031;-79
2021/01/23 07:53:33;;;;;;;141.35;47.45;;;0.50;99.90;;;;;;4954328;28;20552;-79
2021/01/23 07:55:59;;;;;;;128.40;46.28;;;0.50;99.90;;;;;;4955528;28;20035;-79
2021/01/23 07:58:29;;;;;;;152.10;50.00;;;0.40;99.90;;;;;;4955523;28;20453;-79
2021/01/23 08:00:55;;;;;;;137.18;48.88;;;0.40;99.90;;;;;;4955870;28;20050;-79
2021/01/23 08:03:34;;;;;;;141.82;50.78;;;0.40;99.90;;;;;;4964452;28;20065;-79
2021/01/23 08:05:59;;;;;;;143.90;48.53;;;0.40;99.90;;;;;;4989231;28;20019;-79
2021/01/23 08:08:29;;;;;;;133.25;51.35;;;0.40;99.90;;;;;;4973172;28;20035;-79
2021/01/23 08:10:55;;;;;;;154.25;53.00;;;0.40;99.90;;;;;;4974363;28;20659;-79
2021/01/23 08:13:29;;;;;;;127.57;47.28;;;0.30;99.90;;;;;;4974167;28;20053;-79
2021/01/23 08:16:14;;;;;;;165.73;49.80;;;0.30;99.90;;;;;;4988877;28;20038;-79
2021/01/23 08:18:41;;;;;;;142.95;48.47;;;0.30;99.90;;;;;;4973352;28;20579;-79
2021/01/23 08:21:19;;;;;;;152.82;48.55;;;0.30;99.90;;;;;;4974306;28;20050;-79
2021/01/23 08:23:45;;;;;;;145.23;49.28;;;0.30;99.90;;;;;;4968548;28;20026;-79
2021/01/23 08:26:12;;;;;;;141.57;50.65;;;0.40;99.90;;;;;;4954311;28;20034;-79
2021/01/23 08:28:48;;;;;;;141.40;48.45;;;0.40;99.90;;;;;;4954948;28;20494;-79
2021/01/23 08:31:22;;;;;;;126.90;49.80;;;0.50;99.90;;;;;;4953682;28;20047;-79
2021/01/23 08:33:54;;;;;;;166.02;48.47;;;0.50;99.90;;;;;;4954441;28;20038;-79
2021/01/23 08:36:21;;;;;;;153.93;48.28;;;0.60;99.90;;;;;;4954671;28;20428;-79
2021/01/23 08:38:53;;;;;;;145.15;49.72;;;0.70;99.90;;;;;;4953330;29;20062;-80
2021/01/23 08:41:19;;;;;;;165.48;48.70;;;0.70;99.90;;;;;;4953435;28;20073;-80
2021/01/23 08:43:44;;;;;;;140.27;48.00;;;0.80;99.90;;;;;;4953508;29;20504;-77
2021/01/23 08:46:10;;;;;;;158.60;47.75;;;0.80;99.90;;;;;;4954962;29;20027;-79
2021/01/23 08:48:35;;;;;;;154.13;52.00;;;0.80;99.90;;;;;;4953435;29;20638;-79
2021/01/23 08:51:01;;;;;;;151.25;50.33;;;0.90;99.90;;;;;;4954575;29;20510;-78
2021/01/23 08:53:26;;;;;;;160.70;49.78;;;0.90;99.90;;;;;;4953348;28;20271;-79
2021/01/23 08:55:52;;;;;;;138.98;48.67;;;0.90;99.90;;;;;;4953402;29;20027;-80
2021/01/23 08:58:17;;;;;;;139.68;47.35;;;1.00;99.90;;;;;;4953322;29;20091;-80
2021/01/23 09:00:43;;;;;;;163.68;51.60;;;0.90;99.90;;;;;;4954951;28;20106;-80
2021/01/23 09:03:08;;;;;;;146.23;51.22;;;1.00;99.90;;;;;;4953305;29;20019;-79
2021/01/23 09:05:34;;;;;;;144.38;52.50;;;1.00;99.90;;;;;;4954081;29;20024;-79
2021/01/23 09:07:59;;;;;;;161.30;53.10;;;1.00;99.90;;;;;;4954411;28;20034;-80
2021/01/23 09:10:25;;;;;;;150.27;53.28;;;1.00;99.90;;;;;;4954255;29;20377;-80
2021/01/23 09:12:51;;;;;;;151.43;51.60;;;1.00;99.90;;;;;;4954154;28;20582;-80
2021/01/23 09:15:17;;;;;;;145.23;51.58;;;1.10;99.90;;;;;;4954057;29;20205;-80
2021/01/23 09:17:44;;;;;;;149.10;53.10;;;1.10;99.90;;;;;;4954367;28;20045;-80
2021/01/23 09:20:10;;;;;;;162.20;54.28;;;1.10;99.90;;;;;;4953195;28;20023;-79
2021/01/23 09:22:35;;;;;;;135.80;49.50;;;1.20;99.90;;;;;;4954190;28;20098;-79
2021/01/23 09:25:02;;;;;;;156.25;53.53;;;1.20;99.90;;;;;;4969165;28;20131;-79
2021/01/23 09:27:28;;;;;;;160.98;54.60;;;1.30;99.90;;;;;;4973431;28;20031;-79
2021/01/23 09:29:53;;;;;;;145.82;53.22;;;1.20;99.90;;;;;;4972057;28;20029;-78
2021/01/23 09:32:20;;;;;;;154.25;55.60;;;1.30;99.90;;;;;;4971852;28;20038;-78
2021/01/23 09:34:46;;;;;;;170.60;54.38;;;1.30;99.90;;;;;;4972878;28;20118;-78
2021/01/23 09:37:12;;;;;;;167.98;56.30;;;1.40;99.90;;;;;;4970985;28;20121;-79
2021/01/23 09:39:38;;;;;;;171.82;57.85;;;1.30;99.90;;;;;;4971936;28;20126;-79
2021/01/23 09:42:03;;;;;;;166.50;57.17;;;1.30;99.90;;;;;;4971751;28;20051;-79
2021/01/23 09:44:29;;;;;;;159.93;55.20;;;1.30;99.90;;;;;;4972956;28;20023;-78
2021/01/23 09:46:55;;;;;;;165.65;58.65;;;1.30;99.90;;;;;;4972958;28;20015;-79
2021/01/23 09:49:21;;;;;;;165.75;58.08;;;1.40;99.90;;;;;;4972873;28;20527;-79
2021/01/23 09:51:47;;;;;;;180.63;60.00;;;1.40;99.90;;;;;;4971605;28;20395;-79
2021/01/23 09:54:12;;;;;;;170.35;59.97;;;1.40;99.90;;;;;;4971463;28;20050;-79
2021/01/23 09:56:38;;;;;;;171.23;59.72;;;1.50;99.90;;;;;;4971740;28;20479;-79
2021/01/23 09:59:04;;;;;;;175.98;62.08;;;1.70;99.90;;;;;;4971573;28;20031;-79
2021/01/23 10:01:29;;;;;;;159.82;60.63;;;1.80;99.90;;;;;;4972579;28;20031;-79
2021/01/23 10:03:56;;;;;;;162.00;58.15;;;2.00;99.90;;;;;;4972625;28;20030;-80
2021/01/23 10:06:22;;;;;;;142.52;56.63;;;2.10;99.90;;;;;;4987684;28;20085;-80
2021/01/23 10:08:47;;;;;;;150.65;56.28;;;2.20;99.90;;;;;;4972860;28;20487;-79
2021/01/23 10:11:13;;;;;;;163.00;61.35;;;2.20;99.90;;;;;;4972439;28;20042;-79
2021/01/23 10:13:38;;;;;;;146.35;56.70;;;2.30;99.90;;;;;;4972401;28;20046;-79
2021/01/23 10:16:04;;;;;;;164.55;57.92;;;2.30;99.90;;;;;;4967859;28;20031;-79
2021/01/23 10:18:35;;;;;;;152.70;58.22;;;2.20;99.90;;;;;;4953436;28;20051;-79
2021/01/23 10:21:05;;;;;;;142.27;55.55;;;2.20;99.90;;;;;;4953477;28;20098;-80
2021/01/23 10:23:31;;;;;;;144.20;56.28;;;2.20;99.90;;;;;;4952018;28;20019;-79
2021/01/23 10:25:56;;;;;;;150.60;58.17;;;2.30;99.90;;;;;;4955184;28;20122;-79
2021/01/23 10:28:22;;;;;;;155.95;57.22;;;2.40;99.90;;;;;;4971295;28;20031;-79
2021/01/23 10:30:48;;;;;;;158.38;56.92;;;2.40;99.90;;;;;;4971418;28;20166;-79
2021/01/23 10:33:13;;;;;;;135.60;56.90;;;2.40;99.90;;;;;;4972450;28;20023;-79
2021/01/23 10:35:39;;;;;;;159.57;58.45;;;2.50;99.90;;;;;;4971137;28;20026;-79
2021/01/23 10:38:05;;;;;;;143.20;57.78;;;2.60;99.90;;;;;;4972051;28;20073;-79
2021/01/23 10:40:30;;;;;;;147.82;54.75;;;2.60;99.90;;;;;;4972516;28;20019;-79
2021/01/23 10:42:56;;;;;;;131.30;55.65;;;2.50;99.90;;;;;;4972239;28;20026;-79
2021/01/23 10:45:21;;;;;;;143.50;54.30;;;2.60;99.90;;;;;;4972325;28;20027;-79
2021/01/23 10:47:47;;;;;;;127.28;55.45;;;2.70;99.90;;;;;;4968126;28;20118;-79
2021/01/23 10:50:13;;;;;;;123.65;51.20;;;2.60;99.90;;;;;;4956777;29;20035;-79
2021/01/23 10:52:38;;;;;;;120.53;52.63;;;2.60;99.90;;;;;;4955501;29;20065;-79
2021/01/23 10:55:05;;;;;;;120.65;50.40;;;2.60;99.90;;;;;;4956483;29;20073;-80
2021/01/23 10:57:30;;;;;;;124.20;51.58;;;2.60;99.90;;;;;;4967827;28;20034;-80
2021/01/23 10:59:56;;;;;;;119.93;49.97;;;2.60;99.90;;;;;;4974502;28;20027;-79
2021/01/23 11:02:21;;;;;;;125.03;50.00;;;2.60;99.90;;;;;;4974257;28;20023;-79
2021/01/23 11:04:47;;;;;;;106.25;47.55;;;2.60;99.90;;;;;;4975697;28;20030;-79
2021/01/23 11:07:13;;;;;;;112.65;51.08;;;2.60;99.90;;;;;;4975303;28;20050;-79
2021/01/23 11:09:39;;;;;;;100.60;48.35;;;2.60;99.90;;;;;;4975554;28;20031;-79
2021/01/23 11:12:05;;;;;;;108.05;48.35;;;2.50;99.90;;;;;;4970848;28;20032;-80
2021/01/23 11:14:33;;;;;;;101.70;46.85;;;2.60;99.90;;;;;;4956213;29;20037;-80
2021/01/23 11:16:59;;;;;;;108.15;48.80;;;2.60;99.90;;;;;;4958022;28;20397;-79
2021/01/23 11:19:24;;;;;;;99.05;47.22;;;2.70;99.90;;;;;;4975580;28;20033;-80
2021/01/23 11:21:50;;;;;;;108.68;51.80;;;2.70;99.90;;;;;;4964433;28;20035;-80
2021/01/23 11:24:15;;;;;;;107.10;50.92;;;2.80;99.90;;;;;;4975149;28;20026;-79
2021/01/23 11:26:41;;;;;;;121.20;48.05;;;2.80;99.90;;;;;;4974750;28;20077;-80
2021/01/23 11:29:06;;;;;;;116.47;47.20;;;2.90;99.90;;;;;;4973581;28;20023;-78
2021/01/23 11:31:32;;;;;;;107.18;47.38;;;2.90;99.90;;;;;;4983019;28;20054;-79
2021/01/23 11:33:58;;;;;;;99.93;46.92;;;2.90;99.90;;;;;;4994398;28;20035;-79
2021/01/23 11:36:23;;;;;;;96.63;46.85;;;2.90;99.90;;;;;;4992893;28;20041;-79
2021/01/23 11:38:49;;;;;;;101.38;45.28;;;2.90;99.90;;;;;;4973836;28;20023;-79
2021/01/23 11:41:14;;;;;;;110.30;45.97;;;2.90;99.90;;;;;;4975025;28;20031;-79
2021/01/23 11:43:40;;;;;;;97.07;45.63;;;2.90;99.90;;;;;;4975193;28;20073;-79
2021/01/23 11:46:06;;;;;;;103.57;43.97;;;3.00;99.90;;;;;;4974815;28;20027;-79
2021/01/23 11:48:32;;;;;;;97.65;46.08;;;2.90;99.90;;;;;;4974707;28;20031;-79
2021/01/23 11:50:58;;;;;;;88.40;42.22;;;3.00;99.90;;;;;;4973751;28;20033;-79
2021/01/23 11:53:23;;;;;;;93.65;42.35;;;3.00;99.90;;;;;;4974652;28;20027;-79
2021/01/23 11:55:49;;;;;;;89.70;42.28;;;3.00;99.90;;;;;;4974562;28;20796;-80
2021/01/23 11:58:16;;;;;;;90.88;42.83;;;3.00;99.90;;;;;;4974534;28;20027;-80
2021/01/23 12:00:42;;;;;;;90.82;43.63;;;3.10;99.90;;;;;;4973695;28;20027;-80
2021/01/23 12:03:07;;;;;;;95.90;42.97;;;3.20;99.90;;;;;;4977193;28;20038;-79
2021/01/23 12:05:33;;;;;;;87.15;42.22;;;3.40;99.90;;;;;;4986469;28;20026;-79
2021/01/23 12:08:00;;;;;;;95.22;42.08;;;3.40;99.90;;;;;;4972681;28;20065;-80
2021/01/23 12:10:26;;;;;;;84.45;41.38;;;3.40;99.90;;;;;;4969777;28;20053;-80
2021/01/23 12:12:52;;;;;;;92.60;42.45;;;3.30;99.90;;;;;;4970613;28;20499;-80
2021/01/23 12:15:18;;;;;;;82.85;40.92;;;3.20;99.90;;;;;;4972815;28;20566;-80
2021/01/23 12:17:44;;;;;;;105.97;44.55;;;3.20;99.90;;;;;;4974175;28;20022;-80
2021/01/23 12:20:10;;;;;;;86.25;40.78;;;3.30;99.90;;;;;;4974264;28;20057;-79
2021/01/23 12:22:37;;;;;;;82.38;41.97;;;3.30;99.90;;;;;;4973191;28;20038;-79
2021/01/23 12:25:05;;;;;;;87.00;42.47;;;3.30;99.90;;;;;;4974396;28;20470;-79
2021/01/23 12:27:30;;;;;;;85.75;41.47;;;3.40;99.90;;;;;;4969462;28;20041;-79
2021/01/23 12:29:56;;;;;;;78.15;39.80;;;3.40;99.90;;;;;;4954840;29;20403;-78
2021/01/23 12:32:21;;;;;;;85.50;40.80;;;3.40;99.90;;;;;;4953471;28;20079;-79
2021/01/23 12:34:47;;;;;;;88.78;41.47;;;3.40;99.90;;;;;;4952989;28;20082;-79
2021/01/23 12:37:12;;;;;;;76.05;40.92;;;3.40;99.90;;;;;;4953312;29;20114;-80
2021/01/23 12:39:38;;;;;;;76.78;38.25;;;3.40;99.90;;;;;;4954706;28;20023;-79